Time;durP1;ratioP1;P1;durP2;ratioP2;P2;SDS_P1;SDS_P2;PMS_P1;PMS_P2;Temp;Humidity;BMP_temperature;BMP_pressure;BME280_temperature;BME280_humidity;BME280_pressure;Samples;Min_cycle;Max_cycle;Signal;HPM_P1;HPM_P2
2023/08/17 00:01:55;;;;;;;6.63;1.92;;;16.60;99.90;;;;;;5013398;28;20080;-81
2023/08/17 00:04:21;;;;;;;8.88;1.85;;;16.50;99.90;;;;;;5005594;28;20049;-81
2023/08/17 00:06:47;;;;;;;5.43;1.80;;;16.50;99.90;;;;;;5032766;28;20574;-80
2023/08/17 00:09:12;;;;;;;7.20;2.13;;;16.40;99.90;;;;;;5016219;28;20413;-80
2023/08/17 00:11:38;;;;;;;7.07;2.00;;;16.50;99.90;;;;;;5016361;28;20409;-80
2023/08/17 00:14:05;;;;;;;6.53;2.10;;;16.50;99.90;;;;;;4999470;28;20038;-80
2023/08/17 00:16:31;;;;;;;6.35;2.40;;;16.30;99.90;;;;;;4996535;28;20494;-80
2023/08/17 00:18:57;;;;;;;5.65;1.90;;;16.40;99.90;;;;;;5029672;28;20045;-80
2023/08/17 00:21:22;;;;;;;6.03;1.98;;;16.40;99.90;;;;;;5032658;28;20098;-80
2023/08/17 00:23:49;;;;;;;8.23;2.30;;;16.40;99.90;;;;;;5031730;28;20042;-80
2023/08/17 00:26:14;;;;;;;7.47;1.90;;;16.40;99.90;;;;;;5013458;28;20064;-79
2023/08/17 00:28:40;;;;;;;6.55;1.98;;;16.40;99.90;;;;;;4998762;28;20033;-80
2023/08/17 00:31:06;;;;;;;6.63;1.92;;;16.40;99.90;;;;;;5033671;28;20041;-79
2023/08/17 00:33:31;;;;;;;7.38;2.45;;;16.40;99.90;;;;;;5020986;28;20590;-79
2023/08/17 00:35:57;;;;;;;7.82;2.03;;;16.30;99.90;;;;;;4996375;28;20045;-80
2023/08/17 00:38:23;;;;;;;5.75;1.88;;;16.30;99.90;;;;;;5012619;28;20490;-78
2023/08/17 00:40:48;;;;;;;6.93;2.25;;;16.30;99.90;;;;;;5012489;28;20046;-80
2023/08/17 00:43:14;;;;;;;8.00;1.83;;;16.30;99.90;;;;;;5009080;28;20045;-80
2023/08/17 00:45:40;;;;;;;5.35;1.83;;;16.30;99.90;;;;;;5007323;28;20040;-78
2023/08/17 00:48:07;;;;;;;6.97;2.28;;;16.30;99.90;;;;;;5022778;28;20111;-78
2023/08/17 00:50:34;;;;;;;6.45;1.80;;;16.40;99.90;;;;;;5032061;28;20494;-79
2023/08/17 00:53:01;;;;;;;6.20;2.00;;;16.40;99.90;;;;;;5007452;28;20069;-79
2023/08/17 00:55:27;;;;;;;6.28;1.75;;;16.40;99.90;;;;;;5014922;28;20481;-79
2023/08/17 00:57:53;;;;;;;5.50;1.90;;;16.40;99.90;;;;;;5020303;28;20091;-79
2023/08/17 01:00:20;;;;;;;6.05;1.90;;;16.40;99.90;;;;;;5012453;28;20402;-78
2023/08/17 01:02:46;;;;;;;5.07;1.90;;;16.30;99.90;;;;;;5018434;28;20041;-78
2023/08/17 01:05:12;;;;;;;9.63;2.00;;;16.40;99.90;;;;;;5015357;28;20047;-78
2023/08/17 01:07:37;;;;;;;5.32;2.05;;;16.30;99.90;;;;;;5030487;28;20049;-79
2023/08/17 01:10:05;;;;;;;5.82;2.10;;;16.30;99.90;;;;;;5032501;28;20490;-77
2023/08/17 01:12:34;;;;;;;6.72;2.20;;;16.30;99.90;;;;;;5025713;28;20410;-78
2023/08/17 01:15:11;;;;;;;7.32;2.03;;;16.30;99.90;;;;;;5004561;28;20121;-78
2023/08/17 01:17:45;;;;;;;6.75;2.10;;;16.40;99.90;;;;;;5002119;28;20048;-78
2023/08/17 01:20:14;;;;;;;4.35;1.80;;;16.30;99.90;;;;;;5012014;28;20088;-79
2023/08/17 01:22:42;;;;;;;6.30;1.90;;;16.30;99.90;;;;;;4998130;28;20046;-79
2023/08/17 01:25:08;;;;;;;5.72;2.10;;;16.20;99.90;;;;;;5009211;28;20043;-79
2023/08/17 01:27:39;;;;;;;7.75;2.20;;;16.20;99.90;;;;;;5002045;28;20053;-81
2023/08/17 01:30:06;;;;;;;10.67;2.20;;;16.20;99.90;;;;;;5013247;28;20041;-80
2023/08/17 01:33:00;;;;;;;5.68;2.10;;;16.20;99.90;;;;;;5012158;28;20034;-80
2023/08/17 01:35:32;;;;;;;7.85;2.40;;;16.20;99.90;;;;;;5024321;28;20045;-79
2023/08/17 01:38:06;;;;;;;5.90;2.10;;;16.20;99.90;;;;;;5010686;28;20121;-84
2023/08/17 01:40:33;;;;;;;6.20;2.10;;;16.20;99.90;;;;;;5030094;28;20084;-81
2023/08/17 01:43:01;;;;;;;7.18;2.00;;;16.10;99.90;;;;;;5029089;28;20077;-80
2023/08/17 01:45:26;;;;;;;5.53;2.20;;;16.10;99.90;;;;;;5009658;28;20404;-80
2023/08/17 01:47:52;;;;;;;6.25;1.95;;;16.10;99.90;;;;;;5032689;28;20039;-80
2023/08/17 01:50:18;;;;;;;7.15;2.00;;;16.20;99.90;;;;;;5036129;28;20497;-79
2023/08/17 01:52:43;;;;;;;8.05;2.25;;;16.10;99.90;;;;;;5009832;28;20040;-80
2023/08/17 01:55:09;;;;;;;5.78;2.13;;;16.00;99.90;;;;;;5034619;28;20370;-79
2023/08/17 01:57:36;;;;;;;6.95;3.00;;;16.00;99.90;;;;;;5032225;28;20068;-79
2023/08/17 02:00:04;;;;;;;5.90;1.95;;;15.90;99.90;;;;;;5024725;28;20046;-80
2023/08/17 02:02:30;;;;;;;7.53;2.78;;;15.90;99.90;;;;;;5022098;28;20041;-80
2023/08/17 02:04:56;;;;;;;4.90;1.90;;;15.90;99.90;;;;;;5020199;28;20041;-79
2023/08/17 02:07:21;;;;;;;8.07;2.22;;;15.90;99.90;;;;;;5002989;28;20091;-80
2023/08/17 02:09:47;;;;;;;4.95;2.00;;;16.00;99.90;;;;;;5024555;28;20105;-80
2023/08/17 02:12:13;;;;;;;6.95;2.15;;;15.90;99.90;;;;;;5013146;28;20087;-79
2023/08/17 02:14:38;;;;;;;4.65;2.05;;;15.90;99.90;;;;;;5012037;28;20033;-80
2023/08/17 02:17:05;;;;;;;4.60;1.90;;;16.00;99.90;;;;;;5021922;28;20045;-79
2023/08/17 02:19:32;;;;;;;10.23;2.33;;;16.00;99.90;;;;;;5015815;28;20042;-80
2023/08/17 02:21:58;;;;;;;6.18;2.35;;;15.90;99.90;;;;;;5016737;28;20052;-79
2023/08/17 02:24:24;;;;;;;6.05;1.95;;;16.00;99.90;;;;;;5016862;28;20042;-80
2023/08/17 02:26:50;;;;;;;6.15;1.95;;;16.00;99.90;;;;;;5033085;28;20441;-80
2023/08/17 02:29:15;;;;;;;8.40;2.00;;;16.00;99.90;;;;;;5028766;28;20037;-80
2023/08/17 02:31:41;;;;;;;5.78;2.35;;;15.90;99.90;;;;;;5034197;28;20418;-80
2023/08/17 02:34:07;;;;;;;7.68;2.25;;;15.90;99.90;;;;;;5025029;28;20129;-80
2023/08/17 02:36:33;;;;;;;6.57;2.15;;;15.90;99.90;;;;;;5034573;28;20056;-80
2023/08/17 02:38:59;;;;;;;7.35;2.17;;;16.00;99.90;;;;;;5027647;28;20038;-79
2023/08/17 02:41:24;;;;;;;5.97;2.25;;;16.00;99.90;;;;;;5017543;28;20037;-80
2023/08/17 02:43:50;;;;;;;7.22;2.10;;;16.00;99.90;;;;;;5027666;28;20088;-80
2023/08/17 02:46:16;;;;;;;7.82;2.30;;;15.90;99.90;;;;;;5015572;28;20045;-80
2023/08/17 02:48:41;;;;;;;6.28;2.35;;;15.90;99.90;;;;;;5006763;28;20057;-79
2023/08/17 02:51:07;;;;;;;7.25;2.42;;;15.90;99.90;;;;;;5017682;28;20044;-80
2023/08/17 02:53:32;;;;;;;7.80;2.13;;;15.90;99.90;;;;;;5032313;28;20041;-80
2023/08/17 02:55:58;;;;;;;7.43;2.63;;;15.90;99.90;;;;;;5021063;28;20117;-80
2023/08/17 02:58:24;;;;;;;10.25;3.03;;;15.90;99.90;;;;;;5032293;28;20394;-79
2023/08/17 03:00:52;;;;;;;6.95;2.58;;;15.70;99.90;;;;;;5027841;28;20033;-79
2023/08/17 03:03:17;;;;;;;7.40;3.08;;;15.80;99.90;;;;;;5029438;28;20041;-80
2023/08/17 03:05:43;;;;;;;6.40;2.45;;;15.80;99.90;;;;;;4999242;28;20049;-81
2023/08/17 03:08:08;;;;;;;6.57;2.80;;;15.80;99.90;;;;;;5025235;28;20044;-80
2023/08/17 03:10:34;;;;;;;6.05;2.30;;;15.90;99.90;;;;;;5021651;28;20516;-79
2023/08/17 03:13:00;;;;;;;7.22;2.70;;;15.80;99.90;;;;;;5015684;28;20042;-80
2023/08/17 03:15:25;;;;;;;8.30;2.47;;;15.80;99.90;;;;;;5023963;28;20065;-80
2023/08/17 03:17:51;;;;;;;9.82;2.80;;;15.90;99.90;;;;;;5012298;28;20038;-80
2023/08/17 03:20:16;;;;;;;7.55;2.75;;;15.80;99.90;;;;;;5013201;28;20041;-80
2023/08/17 03:22:42;;;;;;;7.13;2.55;;;15.90;99.90;;;;;;5024335;28;20425;-80
2023/08/17 03:25:08;;;;;;;5.90;2.45;;;15.90;99.90;;;;;;5033728;28;20375;-80
2023/08/17 03:27:34;;;;;;;8.90;3.30;;;15.80;99.90;;;;;;5010436;28;20468;-80
2023/08/17 03:29:59;;;;;;;6.65;2.55;;;15.80;99.90;;;;;;5016226;28;20037;-80
2023/08/17 03:32:25;;;;;;;8.35;2.50;;;15.90;99.90;;;;;;5008324;28;20038;-80
2023/08/17 03:34:50;;;;;;;10.50;2.67;;;15.90;99.90;;;;;;5005637;28;20041;-80
2023/08/17 03:37:16;;;;;;;9.25;2.70;;;15.90;99.90;;;;;;5024650;28;20417;-79
2023/08/17 03:39:42;;;;;;;7.35;2.42;;;15.90;99.90;;;;;;5022322;28;20041;-80
2023/08/17 03:42:07;;;;;;;6.53;2.53;;;15.90;99.90;;;;;;5018396;28;20037;-80
2023/08/17 03:44:33;;;;;;;9.52;2.70;;;15.80;99.90;;;;;;5003582;28;20045;-80
2023/08/17 03:46:58;;;;;;;6.05;2.40;;;15.80;99.90;;;;;;5027532;28;20088;-80
2023/08/17 03:49:24;;;;;;;9.00;2.85;;;15.70;99.90;;;;;;5029193;28;20037;-79
2023/08/17 03:51:49;;;;;;;7.35;2.50;;;15.80;99.90;;;;;;5025061;28;20033;-80
2023/08/17 03:54:15;;;;;;;9.90;2.53;;;15.80;99.90;;;;;;5020225;28;20116;-79
2023/08/17 03:56:40;;;;;;;6.57;2.47;;;15.70;99.90;;;;;;5015747;28;20038;-79
2023/08/17 03:59:06;;;;;;;7.47;2.53;;;15.70;99.90;;;;;;5002526;28;20034;-79
2023/08/17 04:01:32;;;;;;;7.55;2.35;;;15.70;99.90;;;;;;5032336;28;20037;-79
2023/08/17 04:03:57;;;;;;;9.70;3.08;;;15.70;99.90;;;;;;5020362;28;20037;-79
2023/08/17 04:06:23;;;;;;;5.82;2.50;;;15.70;99.90;;;;;;5020666;28;20126;-79
2023/08/17 04:08:48;;;;;;;7.15;2.30;;;15.60;99.90;;;;;;5014925;28;20432;-79
2023/08/17 04:11:14;;;;;;;6.75;2.42;;;15.70;99.90;;;;;;5031948;28;20041;-79
2023/08/17 04:13:39;;;;;;;9.32;2.75;;;15.70;99.90;;;;;;5019106;28;20113;-79
2023/08/17 04:16:05;;;;;;;8.95;2.78;;;15.70;99.90;;;;;;5002973;28;20161;-79
2023/08/17 04:18:31;;;;;;;8.50;2.60;;;15.70;99.90;;;;;;5028370;28;20041;-79
2023/08/17 04:20:56;;;;;;;7.75;2.10;;;15.70;99.90;;;;;;5022697;28;20052;-79
2023/08/17 04:23:22;;;;;;;7.30;2.08;;;15.70;99.90;;;;;;5015485;28;20029;-79
2023/08/17 04:25:48;;;;;;;6.90;2.33;;;15.70;99.90;;;;;;5021230;28;20041;-79
2023/08/17 04:28:14;;;;;;;7.60;2.65;;;15.70;99.90;;;;;;4995164;28;20113;-79
2023/08/17 04:30:40;;;;;;;5.72;2.47;;;15.70;99.90;;;;;;5004449;28;20103;-79
2023/08/17 04:33:07;;;;;;;7.65;2.40;;;15.70;99.90;;;;;;5025621;28;20454;-79
2023/08/17 04:35:33;;;;;;;8.13;2.40;;;15.70;99.90;;;;;;5000529;28;20038;-79
2023/08/17 04:37:59;;;;;;;6.55;2.38;;;15.60;99.90;;;;;;5030282;28;20735;-79
2023/08/17 04:40:24;;;;;;;7.50;2.20;;;15.70;99.90;;;;;;5026427;28;20038;-79
2023/08/17 04:42:51;;;;;;;7.75;2.40;;;15.70;99.90;;;;;;5014619;28;20037;-79
2023/08/17 04:45:17;;;;;;;6.15;2.40;;;15.60;99.90;;;;;;5018973;28;20033;-79
2023/08/17 04:47:42;;;;;;;7.95;2.55;;;15.70;99.90;;;;;;5023462;28;20048;-80
2023/08/17 04:50:08;;;;;;;6.30;2.33;;;15.60;99.90;;;;;;5006706;28;20052;-80
2023/08/17 04:52:34;;;;;;;8.43;2.40;;;15.60;99.90;;;;;;5013392;28;20037;-79
2023/08/17 04:55:00;;;;;;;8.18;2.25;;;15.60;99.90;;;;;;5023165;28;20125;-80
2023/08/17 04:57:27;;;;;;;6.10;2.28;;;15.60;99.90;;;;;;5027800;28;20394;-80
2023/08/17 04:59:52;;;;;;;6.18;2.42;;;15.60;99.90;;;;;;5011115;28;20046;-80
2023/08/17 05:02:18;;;;;;;9.88;2.72;;;15.60;99.90;;;;;;5029755;28;20048;-80
2023/08/17 05:04:45;;;;;;;6.88;2.10;;;15.60;99.90;;;;;;5011236;28;20128;-80
2023/08/17 05:07:11;;;;;;;6.75;2.33;;;15.60;99.90;;;;;;5030712;28;20041;-80
2023/08/17 05:09:36;;;;;;;6.30;2.05;;;15.60;99.90;;;;;;5011807;28;20060;-80
2023/08/17 05:12:02;;;;;;;7.57;2.55;;;15.60;99.90;;;;;;5019159;28;20144;-80
2023/08/17 05:14:28;;;;;;;7.03;2.17;;;15.60;99.90;;;;;;5020095;28;20401;-80
2023/08/17 05:16:53;;;;;;;7.38;2.53;;;15.50;99.90;;;;;;5023190;28;20045;-80
2023/08/17 05:19:19;;;;;;;5.13;2.00;;;15.60;99.90;;;;;;5031441;28;20037;-80
2023/08/17 05:21:45;;;;;;;7.30;2.22;;;15.60;99.90;;;;;;5003763;28;20046;-80
2023/08/17 05:24:10;;;;;;;8.55;2.40;;;15.60;99.90;;;;;;5016714;28;20038;-80
2023/08/17 05:28:33;;;;;;;7.93;2.55;;;15.60;99.90;;;;;;5089637;27;20394;-79
2023/08/17 05:31:04;;;;;;;7.47;2.20;;;15.60;99.90;;;;;;5051934;28;20452;-78
2023/08/17 05:33:30;;;;;;;5.50;2.13;;;15.70;99.90;;;;;;5098948;28;20075;-78
2023/08/17 05:35:56;;;;;;;7.82;2.50;;;15.60;99.90;;;;;;5083932;28;20455;-78
2023/08/17 05:38:21;;;;;;;6.43;2.10;;;15.70;99.90;;;;;;5084233;28;20033;-81
2023/08/17 05:40:47;;;;;;;8.05;2.30;;;15.70;99.90;;;;;;5068910;28;20033;-81
2023/08/17 05:43:12;;;;;;;7.88;2.25;;;15.60;99.90;;;;;;5073683;28;20032;-81
2023/08/17 05:45:38;;;;;;;6.35;2.20;;;15.60;99.90;;;;;;5053300;28;20036;-80
2023/08/17 05:48:04;;;;;;;9.52;2.47;;;15.70;99.90;;;;;;5059496;28;20036;-81
2023/08/17 05:50:30;;;;;;;7.53;2.28;;;15.70;99.90;;;;;;5068936;28;20033;-80
2023/08/17 05:52:56;;;;;;;9.13;2.15;;;15.70;99.90;;;;;;5073289;28;20033;-80
2023/08/17 05:55:21;;;;;;;8.32;2.20;;;15.80;99.90;;;;;;5071315;28;20040;-82
2023/08/17 05:57:47;;;;;;;7.10;2.13;;;15.80;99.90;;;;;;5071691;28;20082;-81
2023/08/17 06:00:13;;;;;;;6.35;2.20;;;15.90;99.90;;;;;;5073132;28;20052;-82
2023/08/17 06:02:39;;;;;;;4.97;2.15;;;15.90;99.90;;;;;;5081521;28;20036;-81
2023/08/17 06:05:05;;;;;;;9.30;2.13;;;15.90;99.90;;;;;;5072289;28;20040;-81
2023/08/17 06:07:31;;;;;;;7.25;2.20;;;15.90;99.90;;;;;;5079723;28;20051;-81
2023/08/17 06:09:56;;;;;;;5.68;2.10;;;16.00;99.90;;;;;;5069061;28;20029;-81
2023/08/17 06:12:22;;;;;;;8.93;2.45;;;16.00;99.90;;;;;;5078701;28;20121;-81
2023/08/17 06:14:47;;;;;;;8.95;2.63;;;16.10;99.90;;;;;;5028952;28;20029;-81
2023/08/17 06:17:13;;;;;;;8.98;2.30;;;16.10;99.90;;;;;;5059474;28;20417;-81
2023/08/17 06:19:39;;;;;;;5.15;1.60;;;16.10;99.90;;;;;;5041200;28;20120;-81
2023/08/17 06:22:05;;;;;;;8.80;2.60;;;16.20;99.90;;;;;;5061556;28;20048;-81
2023/08/17 06:24:30;;;;;;;8.65;2.08;;;16.30;99.90;;;;;;5068655;28;20033;-82
2023/08/17 06:26:56;;;;;;;6.57;2.53;;;16.30;99.90;;;;;;5075141;28;20515;-80
2023/08/17 06:29:22;;;;;;;6.15;2.05;;;16.40;99.90;;;;;;5052471;28;20045;-81
2023/08/17 06:31:47;;;;;;;7.50;1.73;;;16.40;99.90;;;;;;5052012;28;20044;-81
2023/08/17 06:34:13;;;;;;;5.43;1.88;;;16.50;99.90;;;;;;5047083;28;20060;-81
2023/08/17 06:36:39;;;;;;;9.25;2.20;;;16.50;99.90;;;;;;5064338;28;20037;-81
2023/08/17 06:39:05;;;;;;;5.55;1.85;;;16.50;99.90;;;;;;5057248;28;20124;-81
2023/08/17 06:41:30;;;;;;;9.13;2.08;;;16.50;99.90;;;;;;5068386;28;20080;-81
2023/08/17 06:43:56;;;;;;;7.90;2.15;;;16.60;99.90;;;;;;5052285;28;20079;-81
2023/08/17 06:46:22;;;;;;;6.22;1.77;;;16.60;99.90;;;;;;5039434;28;20119;-81
2023/08/17 06:48:47;;;;;;;6.88;2.20;;;16.70;99.90;;;;;;5050866;28;20126;-81
2023/08/17 06:51:13;;;;;;;5.90;1.85;;;16.80;99.90;;;;;;5037514;28;20456;-81
2023/08/17 06:53:38;;;;;;;6.05;1.83;;;16.80;99.90;;;;;;5036829;28;20064;-81
2023/08/17 06:56:04;;;;;;;7.80;2.08;;;16.70;99.90;;;;;;5054131;28;20041;-81
2023/08/17 06:58:30;;;;;;;7.63;2.17;;;16.80;99.90;;;;;;5053601;28;20051;-81
2023/08/17 07:00:55;;;;;;;5.65;1.98;;;16.80;99.90;;;;;;5056362;28;20040;-81
2023/08/17 07:03:21;;;;;;;8.88;1.90;;;16.80;99.90;;;;;;5042979;28;20106;-81
2023/08/17 07:05:46;;;;;;;6.18;2.10;;;16.80;99.90;;;;;;5039599;28;20040;-82
2023/08/17 07:08:13;;;;;;;7.20;1.67;;;16.80;99.90;;;;;;5048262;28;20040;-82
2023/08/17 07:10:39;;;;;;;8.85;2.20;;;16.80;99.90;;;;;;5075633;28;20037;-82
2023/08/17 07:13:04;;;;;;;6.47;1.80;;;17.00;99.90;;;;;;5075008;28;20106;-81
2023/08/17 07:15:31;;;;;;;5.93;2.10;;;17.00;99.90;;;;;;5068592;28;20488;-80
2023/08/17 07:17:56;;;;;;;4.95;1.88;;;17.00;99.90;;;;;;5057251;28;20040;-82
2023/08/17 07:20:22;;;;;;;7.35;1.80;;;16.90;99.90;;;;;;5054992;28;20045;-82
2023/08/17 07:22:48;;;;;;;3.90;1.50;;;16.90;99.90;;;;;;5035058;28;20626;-82
2023/08/17 07:25:13;;;;;;;6.05;1.60;;;16.90;99.90;;;;;;5048079;28;20534;-81
2023/08/17 07:27:39;;;;;;;5.15;1.50;;;17.10;99.90;;;;;;5073466;28;20052;-82
2023/08/17 07:30:05;;;;;;;4.68;1.73;;;17.10;99.90;;;;;;5056784;28;20021;-82
2023/08/17 07:32:31;;;;;;;7.90;1.45;;;17.00;99.90;;;;;;5053305;28;20036;-82
2023/08/17 07:34:56;;;;;;;5.80;1.40;;;17.10;99.90;;;;;;5051056;28;20090;-82
2023/08/17 07:37:22;;;;;;;3.53;1.33;;;17.00;99.90;;;;;;5054279;28;20094;-82
2023/08/17 07:39:48;;;;;;;5.25;1.70;;;17.20;99.90;;;;;;5044299;28;20040;-82
2023/08/17 07:42:13;;;;;;;3.75;1.50;;;17.30;99.90;;;;;;5060426;28;20036;-79
2023/08/17 07:44:39;;;;;;;3.17;1.30;;;17.30;99.90;;;;;;5071987;28;20040;-79
2023/08/17 07:47:05;;;;;;;5.47;1.30;;;17.30;99.90;;;;;;5051605;28;20041;-79
2023/08/17 07:49:31;;;;;;;3.63;1.20;;;17.40;99.90;;;;;;5067821;28;20044;-79
2023/08/17 07:51:56;;;;;;;4.35;1.20;;;17.60;99.90;;;;;;5067974;28;20037;-80
2023/08/17 07:54:22;;;;;;;5.63;1.58;;;17.50;99.90;;;;;;5069550;28;20122;-80
2023/08/17 07:56:48;;;;;;;4.75;1.27;;;17.50;99.90;;;;;;5060932;28;20048;-81
2023/08/17 07:59:14;;;;;;;4.30;1.40;;;17.50;99.90;;;;;;5072991;28;20080;-81
2023/08/17 08:01:39;;;;;;;5.50;1.40;;;17.50;99.90;;;;;;5061468;28;20086;-82
2023/08/17 08:04:06;;;;;;;5.82;1.27;;;17.60;99.90;;;;;;5071001;28;20090;-82
2023/08/17 08:06:32;;;;;;;7.80;1.50;;;17.50;99.90;;;;;;5057062;28;20041;-82
2023/08/17 08:08:57;;;;;;;5.28;1.42;;;17.50;99.90;;;;;;5060702;28;20408;-82
2023/08/17 08:11:23;;;;;;;4.72;1.27;;;17.40;99.90;;;;;;5052691;28;20044;-82
2023/08/17 08:13:49;;;;;;;2.30;1.20;;;17.50;99.90;;;;;;5046800;28;20090;-81
2023/08/17 08:16:14;;;;;;;6.60;1.50;;;17.50;99.90;;;;;;5053529;28;20078;-82
2023/08/17 08:18:40;;;;;;;6.28;1.70;;;17.50;99.90;;;;;;5062196;28;20029;-82
2023/08/17 08:21:05;;;;;;;4.50;1.33;;;17.50;99.90;;;;;;5055659;28;20045;-82
2023/08/17 08:23:31;;;;;;;4.88;1.52;;;17.60;99.90;;;;;;5050933;28;20044;-82
2023/08/17 08:25:58;;;;;;;2.95;0.98;;;17.60;99.90;;;;;;5024874;28;20086;-82
2023/08/17 08:28:24;;;;;;;4.03;1.30;;;17.80;99.90;;;;;;5052371;28;20382;-82
2023/08/17 08:30:49;;;;;;;3.90;1.10;;;17.80;99.90;;;;;;5041316;28;20119;-83
2023/08/17 08:33:15;;;;;;;4.82;1.35;;;17.90;99.90;;;;;;5055430;28;20541;-83
2023/08/17 08:35:40;;;;;;;4.95;1.20;;;18.00;99.90;;;;;;5068284;28;20083;-82
2023/08/17 08:38:06;;;;;;;5.63;1.40;;;18.10;99.90;;;;;;5051106;28;20175;-82
2023/08/17 08:40:32;;;;;;;4.88;1.50;;;18.20;99.90;;;;;;5050738;28;20504;-82
2023/08/17 08:42:58;;;;;;;5.07;1.30;;;18.10;99.90;;;;;;5043855;28;20574;-82
2023/08/17 08:45:24;;;;;;;4.60;1.42;;;18.30;99.90;;;;;;5056442;28;20132;-83
2023/08/17 08:47:52;;;;;;;4.20;1.40;;;18.20;99.90;;;;;;5015976;28;20046;-83
2023/08/17 08:50:21;;;;;;;5.50;1.40;;;18.30;99.90;;;;;;5044003;28;20029;-84
2023/08/17 08:52:58;;;;;;;5.15;1.17;;;18.20;99.90;;;;;;5048865;28;20111;-83
2023/08/17 08:55:28;;;;;;;5.00;1.10;;;18.10;99.90;;;;;;5034871;28;20051;-83
2023/08/17 08:57:56;;;;;;;6.30;1.40;;;18.20;99.90;;;;;;5054622;28;20068;-82
2023/08/17 09:00:22;;;;;;;4.25;1.15;;;18.20;99.90;;;;;;5047814;28;20091;-81
2023/08/17 09:02:49;;;;;;;5.30;1.20;;;18.20;99.90;;;;;;5042198;28;20040;-82
2023/08/17 09:05:16;;;;;;;4.45;1.38;;;18.30;99.90;;;;;;5057462;28;20046;-81
2023/08/17 09:07:43;;;;;;;4.03;1.27;;;18.30;99.90;;;;;;5039573;28;20045;-82
2023/08/17 09:10:09;;;;;;;3.88;1.30;;;18.30;99.90;;;;;;5064445;28;20079;-82
2023/08/17 09:12:35;;;;;;;8.02;1.80;;;18.30;99.90;;;;;;5032626;28;20051;-82
2023/08/17 09:15:01;;;;;;;3.33;1.52;;;18.20;99.90;;;;;;5070471;28;20037;-82
2023/08/17 09:17:27;;;;;;;6.22;1.40;;;18.10;99.90;;;;;;5062928;28;20120;-82
2023/08/17 09:19:53;;;;;;;7.63;1.63;;;18.20;99.90;;;;;;5048901;28;20087;-82
2023/08/17 09:22:37;;;;;;;4.75;1.33;;;18.20;99.90;;;;;;5050454;28;20082;-82
2023/08/17 09:25:02;;;;;;;4.05;1.50;;;18.10;99.90;;;;;;5034621;28;20044;-82
2023/08/17 09:27:28;;;;;;;6.20;1.42;;;18.20;99.90;;;;;;5051160;28;20440;-81
2023/08/17 09:30:02;;;;;;;4.60;1.40;;;18.30;99.90;;;;;;5050489;28;20051;-81
2023/08/17 09:32:32;;;;;;;5.15;1.45;;;18.40;99.90;;;;;;5032892;28;20033;-82
2023/08/17 09:35:01;;;;;;;4.45;1.67;;;18.30;99.90;;;;;;5070347;28;20043;-82
2023/08/17 09:37:27;;;;;;;5.75;1.50;;;18.40;99.90;;;;;;5062395;28;20041;-82
2023/08/17 09:39:54;;;;;;;5.88;1.80;;;18.50;99.90;;;;;;5031562;28;20448;-82
2023/08/17 09:42:21;;;;;;;6.28;1.60;;;18.40;99.90;;;;;;5047414;28;20094;-82
2023/08/17 09:44:47;;;;;;;5.65;1.85;;;18.40;99.90;;;;;;5034869;28;20052;-82
2023/08/17 09:47:12;;;;;;;4.03;1.35;;;18.60;99.90;;;;;;5034606;28;20037;-83
2023/08/17 09:49:38;;;;;;;5.32;2.00;;;18.70;99.90;;;;;;5051367;28;20116;-82
2023/08/17 09:52:04;;;;;;;4.70;1.73;;;18.50;99.90;;;;;;5050646;28;20489;-82
2023/08/17 09:54:31;;;;;;;4.47;1.70;;;18.50;99.90;;;;;;5062886;28;20044;-82
2023/08/17 09:56:58;;;;;;;6.38;1.70;;;18.50;99.90;;;;;;5023723;28;20561;-82
2023/08/17 09:59:23;;;;;;;6.05;1.70;;;18.60;99.90;;;;;;5034366;28;20080;-82
2023/08/17 10:01:50;;;;;;;4.68;1.75;;;18.50;99.90;;;;;;5052606;28;20114;-82
2023/08/17 10:04:22;;;;;;;5.95;1.60;;;18.70;99.90;;;;;;5067685;28;20045;-82
2023/08/17 10:06:52;;;;;;;5.95;1.83;;;18.60;99.90;;;;;;5041457;28;20042;-80
2023/08/17 10:09:24;;;;;;;4.50;1.83;;;18.70;99.90;;;;;;5032216;28;20045;-81
2023/08/17 10:11:53;;;;;;;4.28;1.60;;;18.80;99.90;;;;;;5038791;28;20545;-81
2023/08/17 10:14:23;;;;;;;5.90;2.03;;;18.90;99.90;;;;;;5053296;28;20504;-80
2023/08/17 10:17:10;;;;;;;6.80;1.80;;;19.10;99.90;;;;;;5035647;28;20041;-81
2023/08/17 10:19:52;;;;;;;6.85;1.95;;;19.30;99.90;;;;;;5037484;28;20045;-81
2023/08/17 10:22:33;;;;;;;3.28;1.42;;;19.40;99.90;;;;;;5053654;28;20041;-81
2023/08/17 10:25:01;;;;;;;5.18;1.77;;;19.50;99.90;;;;;;5068807;28;20497;-81
2023/08/17 10:27:27;;;;;;;6.10;2.17;;;19.50;99.90;;;;;;5054094;28;20092;-83
2023/08/17 10:29:53;;;;;;;6.88;1.70;;;19.50;99.90;;;;;;5021949;28;20041;-82
2023/08/17 10:32:21;;;;;;;3.38;1.60;;;19.30;99.90;;;;;;5053896;28;20527;-82
2023/08/17 10:34:47;;;;;;;7.25;1.85;;;19.20;99.90;;;;;;5050963;28;20397;-82
2023/08/17 10:37:14;;;;;;;4.53;1.83;;;19.20;99.90;;;;;;5054936;28;20052;-82
2023/08/17 10:39:45;;;;;;;6.75;1.77;;;19.20;99.90;;;;;;5037933;28;20444;-82
2023/08/17 10:42:11;;;;;;;5.00;2.20;;;19.20;99.90;;;;;;5054190;28;20037;-81
2023/08/17 10:44:42;;;;;;;6.20;1.90;;;19.30;99.90;;;;;;5036800;28;20401;-83
2023/08/17 10:47:28;;;;;;;3.97;2.05;;;19.30;99.90;;;;;;5035166;28;20125;-83
2023/08/17 10:50:09;;;;;;;6.00;2.03;;;19.20;99.90;;;;;;5017945;28;20105;-82
2023/08/17 10:52:37;;;;;;;5.60;1.70;;;19.30;99.90;;;;;;5034113;28;20037;-82
2023/08/17 10:55:09;;;;;;;7.97;2.10;;;19.20;99.90;;;;;;5043889;28;20422;-82
2023/08/17 10:57:43;;;;;;;5.53;1.90;;;19.20;99.90;;;;;;5048087;28;20393;-82
2023/08/17 11:00:17;;;;;;;7.68;2.05;;;19.20;99.90;;;;;;5037609;28;20044;-82
2023/08/17 11:03:00;;;;;;;4.57;1.60;;;19.30;99.90;;;;;;5031137;28;20049;-82
2023/08/17 11:05:38;;;;;;;4.97;1.90;;;19.30;99.90;;;;;;5053823;28;20468;-82
2023/08/17 11:08:05;;;;;;;5.57;2.00;;;19.30;99.90;;;;;;5017482;28;20044;-82
2023/08/17 11:10:31;;;;;;;4.82;2.00;;;19.30;99.90;;;;;;5033969;28;20034;-82
2023/08/17 11:13:01;;;;;;;6.55;2.15;;;19.30;99.90;;;;;;5050561;28;20409;-82
2023/08/17 11:15:38;;;;;;;6.32;2.00;;;19.30;99.90;;;;;;5033681;28;20038;-82
2023/08/17 11:18:08;;;;;;;4.78;1.95;;;19.40;99.90;;;;;;5050702;28;20041;-82
2023/08/17 11:20:34;;;;;;;6.15;1.98;;;19.40;99.90;;;;;;5037896;28;20504;-81
2023/08/17 11:23:00;;;;;;;4.70;2.00;;;19.30;99.90;;;;;;5051013;28;20060;-82
2023/08/17 11:25:27;;;;;;;7.65;2.10;;;19.30;99.90;;;;;;5037142;28;20489;-81
2023/08/17 11:27:53;;;;;;;6.22;1.90;;;19.30;99.90;;;;;;5031219;28;20060;-81
2023/08/17 11:30:22;;;;;;;6.30;2.05;;;19.40;99.90;;;;;;5068496;28;20055;-82
2023/08/17 11:32:52;;;;;;;5.93;2.10;;;19.40;99.90;;;;;;5020423;28;20034;-82
2023/08/17 11:35:18;;;;;;;6.10;1.80;;;19.60;99.90;;;;;;5039058;28;20029;-82
2023/08/17 11:37:43;;;;;;;8.38;2.00;;;19.60;99.90;;;;;;5047765;28;20382;-82
2023/08/17 11:40:11;;;;;;;5.63;2.10;;;19.70;99.90;;;;;;5034686;28;20041;-82
2023/08/17 11:42:37;;;;;;;5.60;2.22;;;19.70;99.90;;;;;;5049403;28;20071;-82
2023/08/17 11:45:04;;;;;;;4.75;1.50;;;19.80;99.90;;;;;;5061119;28;20481;-82
2023/08/17 11:47:30;;;;;;;7.57;2.38;;;19.80;99.90;;;;;;5050273;28;20498;-82
2023/08/17 11:50:02;;;;;;;6.00;2.17;;;19.90;99.90;;;;;;5030300;28;20104;-82
2023/08/17 11:52:29;;;;;;;5.70;1.90;;;19.90;99.90;;;;;;5071310;28;20029;-82
2023/08/17 11:54:56;;;;;;;7.55;2.20;;;20.10;99.90;;;;;;5048776;28;20090;-82
2023/08/17 11:57:22;;;;;;;6.57;1.98;;;20.20;99.90;;;;;;5060210;28;20041;-82
2023/08/17 11:59:47;;;;;;;6.00;1.98;;;20.30;99.90;;;;;;5043687;28;20048;-82
2023/08/17 12:02:13;;;;;;;7.72;2.28;;;20.30;99.90;;;;;;5041184;28;20053;-82
2023/08/17 12:04:39;;;;;;;7.20;2.35;;;20.30;99.90;;;;;;5047196;28;20041;-82
2023/08/17 12:07:05;;;;;;;5.88;2.35;;;20.30;99.90;;;;;;5059572;28;20401;-81
2023/08/17 12:09:34;;;;;;;6.63;2.20;;;20.30;99.90;;;;;;5065556;28;20045;-81
2023/08/17 12:12:01;;;;;;;6.22;2.08;;;20.20;99.90;;;;;;5047697;28;20056;-82
2023/08/17 12:14:30;;;;;;;4.88;2.20;;;20.20;99.90;;;;;;5059370;28;20037;-81
2023/08/17 12:16:56;;;;;;;7.13;2.33;;;20.30;99.90;;;;;;5089297;28;20044;-82
2023/08/17 12:19:25;;;;;;;6.95;2.40;;;20.30;99.90;;;;;;5049485;28;20037;-81
2023/08/17 12:21:50;;;;;;;5.82;1.92;;;20.30;99.90;;;;;;5036180;28;20401;-81
2023/08/17 12:24:19;;;;;;;6.90;2.42;;;20.30;99.90;;;;;;5035476;28;20041;-81
2023/08/17 12:26:46;;;;;;;5.95;2.03;;;20.30;99.90;;;;;;5035217;28;20088;-81
2023/08/17 12:29:12;;;;;;;5.90;2.22;;;20.40;99.90;;;;;;5041787;28;20525;-81
2023/08/17 12:31:38;;;;;;;4.30;2.05;;;20.50;99.90;;;;;;5046943;28;20075;-81
2023/08/17 12:34:05;;;;;;;7.15;2.30;;;20.50;99.90;;;;;;5048020;28;20450;-81
2023/08/17 12:36:37;;;;;;;6.10;2.22;;;20.60;99.90;;;;;;5035490;28;20040;-81
2023/08/17 12:39:04;;;;;;;5.07;2.00;;;20.60;99.90;;;;;;5041887;28;20037;-82
2023/08/17 12:41:29;;;;;;;6.72;2.80;;;20.60;99.90;;;;;;5045280;28;20028;-82
2023/08/17 12:43:58;;;;;;;4.97;2.10;;;20.50;99.90;;;;;;5034487;28;20040;-81
2023/08/17 12:46:24;;;;;;;6.53;2.22;;;20.60;99.90;;;;;;5057956;28;20040;-82